Ravels, Belgium
Current Conditions -  °F | °C
As of 12:25 PM on Tuesday 21 Oct 2014 (Local Time) from EHGR Reporting Station
Overcast Overcast  
Wind Chill: 55°   Ceiling: 1300
Heat Index: 55°   Visibility: 6mi
Dew Point: 52°   Wind: 17mph
Humidity: 88%   Direction: 210°SSW
Pressure: 29.56"   Gusts: NA
Location:  51.37°N, 4.99°E
Report Text: EHGR 211025Z AUTO 21015KT 9999 SCT010 BKN013 OVC015 13/11 Q1001 GRN 20015G25KT 9999 BKN020 BKN030 TEMPO 25020G35KT 5000 SHRA SCT010 BKN015CB OVC020
Loading
Personal Weather Stations






























Interactive Weather Map
Tropical Storm Tracking
New forecast layout! Learn more

10-Day Weather Forecast

Advertisements
Track Severe Weather on mobile